sensor_id;sensor_type;location;lat;lon;timestamp;temperature;humidity
1359;DHT22;673;48.098;14.422;2023-08-06T00:01:05;15.00;99.90
1359;DHT22;673;48.098;14.422;2023-08-06T00:03:32;15.00;99.90
1359;DHT22;673;48.098;14.422;2023-08-06T00:05:59;15.00;99.90
1359;DHT22;673;48.098;14.422;2023-08-06T00:08:26;15.00;99.90
1359;DHT22;673;48.098;14.422;2023-08-06T00:10:53;15.10;99.90
1359;DHT22;673;48.098;14.422;2023-08-06T00:13:20;15.10;99.90
1359;DHT22;673;48.098;14.422;2023-08-06T00:15:49;15.00;99.90
1359;DHT22;673;48.098;14.422;2023-08-06T00:18:15;15.00;99.90
1359;DHT22;673;48.098;14.422;2023-08-06T00:20:42;15.00;99.90
1359;DHT22;673;48.098;14.422;2023-08-06T00:23:09;15.10;99.90
1359;DHT22;673;48.098;14.422;2023-08-06T00:25:37;15.10;99.90
1359;DHT22;673;48.098;14.422;2023-08-06T00:28:04;15.10;99.90
1359;DHT22;673;48.098;14.422;2023-08-06T00:30:31;15.10;99.90
1359;DHT22;673;48.098;14.422;2023-08-06T00:32:59;15.00;99.90
1359;DHT22;673;48.098;14.422;2023-08-06T00:35:26;15.00;99.90
1359;DHT22;673;48.098;14.422;2023-08-06T00:37:53;15.00;99.90
1359;DHT22;673;48.098;14.422;2023-08-06T00:40:20;15.00;99.90
1359;DHT22;673;48.098;14.422;2023-08-06T00:42:48;15.00;99.90
1359;DHT22;673;48.098;14.422;2023-08-06T00:45:15;15.00;99.90
1359;DHT22;673;48.098;14.422;2023-08-06T00:47:42;15.00;99.90
1359;DHT22;673;48.098;14.422;2023-08-06T00:50:11;15.00;99.90
1359;DHT22;673;48.098;14.422;2023-08-06T00:52:38;15.00;99.90
1359;DHT22;673;48.098;14.422;2023-08-06T00:55:06;15.00;99.90
1359;DHT22;673;48.098;14.422;2023-08-06T00:57:33;15.00;99.90
1359;DHT22;673;48.098;14.422;2023-08-06T01:00:01;15.00;99.90
1359;DHT22;673;48.098;14.422;2023-08-06T01:02:29;15.00;99.90
1359;DHT22;673;48.098;14.422;2023-08-06T01:04:56;15.00;99.90
1359;DHT22;673;48.098;14.422;2023-08-06T01:07:37;15.00;99.90
1359;DHT22;673;48.098;14.422;2023-08-06T01:10:23;15.00;99.90
1359;DHT22;673;48.098;14.422;2023-08-06T01:12:58;14.90;99.90
1359;DHT22;673;48.098;14.422;2023-08-06T01:15:32;15.00;99.90
1359;DHT22;673;48.098;14.422;2023-08-06T01:17:59;15.00;99.90
1359;DHT22;673;48.098;14.422;2023-08-06T01:20:29;15.00;99.90
1359;DHT22;673;48.098;14.422;2023-08-06T01:22:57;14.90;99.90
1359;DHT22;673;48.098;14.422;2023-08-06T01:25:28;14.90;99.90
1359;DHT22;673;48.098;14.422;2023-08-06T01:27:59;14.90;99.90
1359;DHT22;673;48.098;14.422;2023-08-06T01:30:30;14.90;99.90
1359;DHT22;673;48.098;14.422;2023-08-06T01:33:04;14.90;99.90
1359;DHT22;673;48.098;14.422;2023-08-06T01:35:33;14.90;99.90
1359;DHT22;673;48.098;14.422;2023-08-06T01:38:02;14.90;99.90
1359;DHT22;673;48.098;14.422;2023-08-06T01:40:29;14.90;99.90
1359;DHT22;673;48.098;14.422;2023-08-06T01:42:57;15.00;99.90
1359;DHT22;673;48.098;14.422;2023-08-06T01:45:24;15.00;99.90
1359;DHT22;673;48.098;14.422;2023-08-06T01:47:51;14.90;99.90
1359;DHT22;673;48.098;14.422;2023-08-06T01:50:18;14.90;99.90
1359;DHT22;673;48.098;14.422;2023-08-06T01:52:46;14.90;99.90
1359;DHT22;673;48.098;14.422;2023-08-06T01:55:13;14.90;99.90
1359;DHT22;673;48.098;14.422;2023-08-06T01:57:40;14.90;99.90
1359;DHT22;673;48.098;14.422;2023-08-06T02:00:08;14.90;99.90
1359;DHT22;673;48.098;14.422;2023-08-06T02:02:35;14.90;99.90
1359;DHT22;673;48.098;14.422;2023-08-06T02:05:02;14.80;99.90
1359;DHT22;673;48.098;14.422;2023-08-06T02:07:29;14.80;99.90
1359;DHT22;673;48.098;14.422;2023-08-06T02:09:57;14.80;99.90
1359;DHT22;673;48.098;14.422;2023-08-06T02:12:24;14.80;99.90
1359;DHT22;673;48.098;14.422;2023-08-06T02:14:51;14.80;99.90
1359;DHT22;673;48.098;14.422;2023-08-06T02:17:18;14.80;99.90
1359;DHT22;673;48.098;14.422;2023-08-06T02:19:45;14.80;99.90
1359;DHT22;673;48.098;14.422;2023-08-06T02:22:12;14.80;99.90
1359;DHT22;673;48.098;14.422;2023-08-06T02:24:39;14.80;99.90
1359;DHT22;673;48.098;14.422;2023-08-06T02:27:07;14.70;99.90
1359;DHT22;673;48.098;14.422;2023-08-06T02:29:34;14.70;99.90
1359;DHT22;673;48.098;14.422;2023-08-06T02:32:01;14.70;99.90
1359;DHT22;673;48.098;14.422;2023-08-06T02:34:28;14.70;99.90
1359;DHT22;673;48.098;14.422;2023-08-06T02:36:55;14.60;99.90
1359;DHT22;673;48.098;14.422;2023-08-06T02:39:22;14.60;99.90
1359;DHT22;673;48.098;14.422;2023-08-06T02:41:49;14.60;99.90
1359;DHT22;673;48.098;14.422;2023-08-06T02:44:17;14.60;99.90
1359;DHT22;673;48.098;14.422;2023-08-06T02:46:44;14.60;99.90
1359;DHT22;673;48.098;14.422;2023-08-06T02:49:11;14.60;99.90
1359;DHT22;673;48.098;14.422;2023-08-06T02:51:38;14.60;99.90
1359;DHT22;673;48.098;14.422;2023-08-06T02:54:05;14.60;99.90
1359;DHT22;673;48.098;14.422;2023-08-06T02:56:32;14.60;99.90
1359;DHT22;673;48.098;14.422;2023-08-06T02:58:59;14.60;99.90
1359;DHT22;673;48.098;14.422;2023-08-06T03:01:27;14.60;99.90
1359;DHT22;673;48.098;14.422;2023-08-06T03:03:54;14.60;99.90
1359;DHT22;673;48.098;14.422;2023-08-06T03:06:21;14.60;99.90
1359;DHT22;673;48.098;14.422;2023-08-06T03:08:48;14.50;99.90
1359;DHT22;673;48.098;14.422;2023-08-06T03:11:15;14.50;99.90
1359;DHT22;673;48.098;14.422;2023-08-06T03:13:42;14.50;99.90
1359;DHT22;673;48.098;14.422;2023-08-06T03:16:09;14.50;99.90
1359;DHT22;673;48.098;14.422;2023-08-06T03:18:37;14.60;99.90
1359;DHT22;673;48.098;14.422;2023-08-06T03:21:04;14.60;99.90
1359;DHT22;673;48.098;14.422;2023-08-06T03:23:31;14.60;99.90
1359;DHT22;673;48.098;14.422;2023-08-06T03:26:01;14.60;99.90
1359;DHT22;673;48.098;14.422;2023-08-06T03:28:28;14.60;99.90
1359;DHT22;673;48.098;14.422;2023-08-06T03:31:01;14.70;99.90
1359;DHT22;673;48.098;14.422;2023-08-06T03:33:29;14.70;99.90
1359;DHT22;673;48.098;14.422;2023-08-06T03:35:57;14.70;99.90
1359;DHT22;673;48.098;14.422;2023-08-06T03:38:24;14.70;99.90
1359;DHT22;673;48.098;14.422;2023-08-06T03:40:51;14.70;99.90
1359;DHT22;673;48.098;14.422;2023-08-06T03:43:18;14.70;99.90
1359;DHT22;673;48.098;14.422;2023-08-06T03:45:45;14.70;99.90
1359;DHT22;673;48.098;14.422;2023-08-06T03:48:12;14.70;99.90
1359;DHT22;673;48.098;14.422;2023-08-06T03:50:39;14.70;99.90
1359;DHT22;673;48.098;14.422;2023-08-06T03:53:08;14.70;99.90
1359;DHT22;673;48.098;14.422;2023-08-06T03:55:34;14.70;99.90
1359;DHT22;673;48.098;14.422;2023-08-06T03:58:01;14.60;99.90
1359;DHT22;673;48.098;14.422;2023-08-06T04:00:28;14.60;99.90
1359;DHT22;673;48.098;14.422;2023-08-06T04:02:55;14.60;99.90
1359;DHT22;673;48.098;14.422;2023-08-06T04:05:22;14.60;99.90
1359;DHT22;673;48.098;14.422;2023-08-06T04:07:49;14.50;99.90
1359;DHT22;673;48.098;14.422;2023-08-06T04:10:17;14.50;99.90
1359;DHT22;673;48.098;14.422;2023-08-06T04:12:44;14.50;99.90
1359;DHT22;673;48.098;14.422;2023-08-06T04:15:11;14.40;99.90
1359;DHT22;673;48.098;14.422;2023-08-06T04:17:38;14.30;99.90
1359;DHT22;673;48.098;14.422;2023-08-06T04:20:06;14.30;99.90
1359;DHT22;673;48.098;14.422;2023-08-06T04:22:33;14.30;99.90
1359;DHT22;673;48.098;14.422;2023-08-06T04:25:00;14.30;99.90
1359;DHT22;673;48.098;14.422;2023-08-06T04:27:29;14.20;99.90
1359;DHT22;673;48.098;14.422;2023-08-06T04:29:56;14.20;99.90
1359;DHT22;673;48.098;14.422;2023-08-06T04:32:23;14.20;99.90
1359;DHT22;673;48.098;14.422;2023-08-06T04:34:51;14.20;99.90
1359;DHT22;673;48.098;14.422;2023-08-06T04:37:18;14.20;99.90
1359;DHT22;673;48.098;14.422;2023-08-06T04:39:44;14.10;99.90
1359;DHT22;673;48.098;14.422;2023-08-06T04:42:11;14.10;99.90
1359;DHT22;673;48.098;14.422;2023-08-06T04:44:40;14.10;99.90
1359;DHT22;673;48.098;14.422;2023-08-06T04:47:07;14.10;99.90
1359;DHT22;673;48.098;14.422;2023-08-06T04:49:34;14.10;99.90
1359;DHT22;673;48.098;14.422;2023-08-06T04:52:01;14.10;99.90
1359;DHT22;673;48.098;14.422;2023-08-06T04:54:28;14.10;99.90
1359;DHT22;673;48.098;14.422;2023-08-06T04:56:55;14.10;99.90
1359;DHT22;673;48.098;14.422;2023-08-06T04:59:21;14.00;99.90
1359;DHT22;673;48.098;14.422;2023-08-06T05:01:50;14.00;99.90
1359;DHT22;673;48.098;14.422;2023-08-06T05:04:17;14.00;99.90
1359;DHT22;673;48.098;14.422;2023-08-06T05:06:44;14.00;99.90
1359;DHT22;673;48.098;14.422;2023-08-06T05:09:11;14.00;99.90
1359;DHT22;673;48.098;14.422;2023-08-06T05:11:37;13.90;99.90
1359;DHT22;673;48.098;14.422;2023-08-06T05:14:04;13.90;99.90
1359;DHT22;673;48.098;14.422;2023-08-06T05:16:31;13.90;99.90
1359;DHT22;673;48.098;14.422;2023-08-06T05:19:00;13.90;99.90
1359;DHT22;673;48.098;14.422;2023-08-06T05:21:26;13.90;99.90
1359;DHT22;673;48.098;14.422;2023-08-06T05:23:54;13.90;99.90
1359;DHT22;673;48.098;14.422;2023-08-06T05:26:21;13.90;99.90
1359;DHT22;673;48.098;14.422;2023-08-06T05:28:48;13.90;99.90
1359;DHT22;673;48.098;14.422;2023-08-06T05:31:15;13.90;99.90
1359;DHT22;673;48.098;14.422;2023-08-06T05:33:42;13.90;99.90
1359;DHT22;673;48.098;14.422;2023-08-06T05:36:10;13.90;99.90
1359;DHT22;673;48.098;14.422;2023-08-06T05:38:37;14.00;99.90
1359;DHT22;673;48.098;14.422;2023-08-06T05:41:04;13.90;99.90
1359;DHT22;673;48.098;14.422;2023-08-06T05:43:31;13.90;99.90
1359;DHT22;673;48.098;14.422;2023-08-06T05:45:58;14.00;99.90
1359;DHT22;673;48.098;14.422;2023-08-06T05:48:25;14.00;99.90
1359;DHT22;673;48.098;14.422;2023-08-06T05:50:53;13.90;99.90
1359;DHT22;673;48.098;14.422;2023-08-06T05:53:21;13.90;99.90
1359;DHT22;673;48.098;14.422;2023-08-06T05:55:48;13.90;99.90
1359;DHT22;673;48.098;14.422;2023-08-06T05:58:15;13.90;99.90
1359;DHT22;673;48.098;14.422;2023-08-06T06:00:43;14.00;99.90
1359;DHT22;673;48.098;14.422;2023-08-06T06:03:10;14.00;99.90
1359;DHT22;673;48.098;14.422;2023-08-06T06:05:37;14.00;99.90
1359;DHT22;673;48.098;14.422;2023-08-06T06:08:05;14.10;99.90
1359;DHT22;673;48.098;14.422;2023-08-06T06:10:33;14.10;99.90
1359;DHT22;673;48.098;14.422;2023-08-06T06:13:01;14.20;99.90
1359;DHT22;673;48.098;14.422;2023-08-06T06:15:28;14.30;99.90
1359;DHT22;673;48.098;14.422;2023-08-06T06:17:55;14.20;99.90
1359;DHT22;673;48.098;14.422;2023-08-06T06:20:22;14.30;99.90
1359;DHT22;673;48.098;14.422;2023-08-06T06:22:49;14.40;99.90
1359;DHT22;673;48.098;14.422;2023-08-06T06:25:17;14.50;99.90
1359;DHT22;673;48.098;14.422;2023-08-06T06:27:46;14.50;99.90
1359;DHT22;673;48.098;14.422;2023-08-06T06:30:13;14.50;99.90
1359;DHT22;673;48.098;14.422;2023-08-06T06:32:40;14.70;99.90
1359;DHT22;673;48.098;14.422;2023-08-06T06:35:08;14.70;99.90
1359;DHT22;673;48.098;14.422;2023-08-06T06:37:35;14.90;99.90
1359;DHT22;673;48.098;14.422;2023-08-06T06:40:02;14.90;99.90
1359;DHT22;673;48.098;14.422;2023-08-06T06:42:29;14.90;99.90
1359;DHT22;673;48.098;14.422;2023-08-06T06:44:56;14.80;99.90
1359;DHT22;673;48.098;14.422;2023-08-06T06:47:23;14.90;99.90
1359;DHT22;673;48.098;14.422;2023-08-06T06:49:50;15.00;99.90
1359;DHT22;673;48.098;14.422;2023-08-06T06:52:17;15.00;99.90
1359;DHT22;673;48.098;14.422;2023-08-06T06:54:44;15.10;99.90
1359;DHT22;673;48.098;14.422;2023-08-06T06:57:11;15.20;99.90
1359;DHT22;673;48.098;14.422;2023-08-06T06:59:38;15.30;99.90
1359;DHT22;673;48.098;14.422;2023-08-06T07:02:07;15.40;99.90
1359;DHT22;673;48.098;14.422;2023-08-06T07:04:34;15.60;99.90
1359;DHT22;673;48.098;14.422;2023-08-06T07:07:01;15.50;99.90
1359;DHT22;673;48.098;14.422;2023-08-06T07:09:27;15.60;99.90
1359;DHT22;673;48.098;14.422;2023-08-06T07:11:54;15.70;99.90
1359;DHT22;673;48.098;14.422;2023-08-06T07:14:22;15.80;99.90
1359;DHT22;673;48.098;14.422;2023-08-06T07:16:49;15.70;99.90
1359;DHT22;673;48.098;14.422;2023-08-06T07:19:17;15.70;99.90
1359;DHT22;673;48.098;14.422;2023-08-06T07:21:44;15.80;99.90
1359;DHT22;673;48.098;14.422;2023-08-06T07:24:11;15.70;99.90
1359;DHT22;673;48.098;14.422;2023-08-06T07:26:38;15.80;99.90
1359;DHT22;673;48.098;14.422;2023-08-06T07:29:05;15.90;99.90
1359;DHT22;673;48.098;14.422;2023-08-06T07:31:32;15.90;99.90
1359;DHT22;673;48.098;14.422;2023-08-06T07:33:59;15.70;99.90
1359;DHT22;673;48.098;14.422;2023-08-06T07:36:27;15.70;99.90
1359;DHT22;673;48.098;14.422;2023-08-06T07:38:54;15.70;99.90
1359;DHT22;673;48.098;14.422;2023-08-06T07:41:22;15.70;99.90
1359;DHT22;673;48.098;14.422;2023-08-06T07:43:49;15.80;99.90
1359;DHT22;673;48.098;14.422;2023-08-06T07:46:16;15.70;99.90
1359;DHT22;673;48.098;14.422;2023-08-06T07:48:43;15.50;99.90
1359;DHT22;673;48.098;14.422;2023-08-06T07:51:10;15.40;99.90
1359;DHT22;673;48.098;14.422;2023-08-06T07:53:38;15.30;99.90
1359;DHT22;673;48.098;14.422;2023-08-06T07:56:05;15.30;99.90
1359;DHT22;673;48.098;14.422;2023-08-06T07:58:32;15.30;99.90
1359;DHT22;673;48.098;14.422;2023-08-06T08:00:59;15.30;99.90
1359;DHT22;673;48.098;14.422;2023-08-06T08:03:26;15.20;99.90
1359;DHT22;673;48.098;14.422;2023-08-06T08:05:55;15.20;99.90
1359;DHT22;673;48.098;14.422;2023-08-06T08:08:24;15.10;99.90
1359;DHT22;673;48.098;14.422;2023-08-06T08:10:52;15.10;99.90
1359;DHT22;673;48.098;14.422;2023-08-06T08:13:20;14.90;99.90
1359;DHT22;673;48.098;14.422;2023-08-06T08:15:47;14.80;99.90
1359;DHT22;673;48.098;14.422;2023-08-06T08:18:14;14.80;99.90
1359;DHT22;673;48.098;14.422;2023-08-06T08:20:41;14.70;99.90
1359;DHT22;673;48.098;14.422;2023-08-06T08:23:08;14.60;99.90
1359;DHT22;673;48.098;14.422;2023-08-06T08:25:35;14.60;99.90
1359;DHT22;673;48.098;14.422;2023-08-06T08:28:04;14.50;99.90
1359;DHT22;673;48.098;14.422;2023-08-06T08:30:31;14.30;99.90
1359;DHT22;673;48.098;14.422;2023-08-06T08:32:58;14.10;99.90
1359;DHT22;673;48.098;14.422;2023-08-06T08:35:25;14.10;99.90
1359;DHT22;673;48.098;14.422;2023-08-06T08:37:52;13.80;99.90
1359;DHT22;673;48.098;14.422;2023-08-06T08:40:20;13.70;99.90
1359;DHT22;673;48.098;14.422;2023-08-06T08:42:50;13.50;99.90
1359;DHT22;673;48.098;14.422;2023-08-06T08:45:20;13.40;99.90
1359;DHT22;673;48.098;14.422;2023-08-06T08:47:49;13.40;99.90
1359;DHT22;673;48.098;14.422;2023-08-06T08:50:17;13.40;99.90
1359;DHT22;673;48.098;14.422;2023-08-06T08:52:45;13.50;99.90
1359;DHT22;673;48.098;14.422;2023-08-06T08:55:15;13.80;99.90
1359;DHT22;673;48.098;14.422;2023-08-06T08:57:42;14.00;99.90
1359;DHT22;673;48.098;14.422;2023-08-06T09:00:10;14.30;99.90
1359;DHT22;673;48.098;14.422;2023-08-06T09:02:39;14.50;99.90
1359;DHT22;673;48.098;14.422;2023-08-06T09:05:07;14.60;99.90
1359;DHT22;673;48.098;14.422;2023-08-06T09:07:38;14.80;99.90
1359;DHT22;673;48.098;14.422;2023-08-06T09:10:11;15.00;99.90
1359;DHT22;673;48.098;14.422;2023-08-06T09:12:39;15.10;99.90
1359;DHT22;673;48.098;14.422;2023-08-06T09:15:07;15.20;99.90
1359;DHT22;673;48.098;14.422;2023-08-06T09:17:34;15.40;99.90
1359;DHT22;673;48.098;14.422;2023-08-06T09:20:11;15.80;99.90
1359;DHT22;673;48.098;14.422;2023-08-06T09:22:38;16.20;99.90
1359;DHT22;673;48.098;14.422;2023-08-06T09:25:05;16.30;99.90
1359;DHT22;673;48.098;14.422;2023-08-06T09:27:36;16.50;99.90
1359;DHT22;673;48.098;14.422;2023-08-06T09:30:04;16.70;99.90
1359;DHT22;673;48.098;14.422;2023-08-06T09:32:45;16.90;99.90
1359;DHT22;673;48.098;14.422;2023-08-06T09:35:17;17.00;99.90
1359;DHT22;673;48.098;14.422;2023-08-06T09:37:44;16.80;99.90
1359;DHT22;673;48.098;14.422;2023-08-06T09:40:25;16.90;99.90
1359;DHT22;673;48.098;14.422;2023-08-06T09:42:52;16.70;99.90
1359;DHT22;673;48.098;14.422;2023-08-06T09:45:19;16.60;99.90
1359;DHT22;673;48.098;14.422;2023-08-06T09:47:47;16.50;99.90
1359;DHT22;673;48.098;14.422;2023-08-06T09:50:17;16.50;99.90
1359;DHT22;673;48.098;14.422;2023-08-06T09:52:47;16.60;99.90
1359;DHT22;673;48.098;14.422;2023-08-06T09:55:15;16.70;99.90
1359;DHT22;673;48.098;14.422;2023-08-06T09:57:42;16.70;99.90
1359;DHT22;673;48.098;14.422;2023-08-06T10:00:10;16.70;99.90
1359;DHT22;673;48.098;14.422;2023-08-06T10:02:39;17.00;99.90
1359;DHT22;673;48.098;14.422;2023-08-06T10:05:07;17.20;99.90
1359;DHT22;673;48.098;14.422;2023-08-06T10:07:36;17.60;99.90
1359;DHT22;673;48.098;14.422;2023-08-06T10:10:05;17.90;99.90
1359;DHT22;673;48.098;14.422;2023-08-06T10:12:34;18.10;99.90
1359;DHT22;673;48.098;14.422;2023-08-06T10:15:06;18.20;99.90
1359;DHT22;673;48.098;14.422;2023-08-06T10:17:36;18.20;99.90
1359;DHT22;673;48.098;14.422;2023-08-06T10:20:05;18.30;99.90
1359;DHT22;673;48.098;14.422;2023-08-06T10:22:34;18.30;99.90
1359;DHT22;673;48.098;14.422;2023-08-06T10:25:04;18.50;99.90
1359;DHT22;673;48.098;14.422;2023-08-06T10:27:32;18.50;99.90
1359;DHT22;673;48.098;14.422;2023-08-06T10:30:22;18.70;99.90
1359;DHT22;673;48.098;14.422;2023-08-06T10:32:50;18.50;99.90
1359;DHT22;673;48.098;14.422;2023-08-06T10:35:31;18.70;99.90
1359;DHT22;673;48.098;14.422;2023-08-06T10:38:03;18.30;99.90
1359;DHT22;673;48.098;14.422;2023-08-06T10:40:32;18.20;99.90
1359;DHT22;673;48.098;14.422;2023-08-06T10:43:00;18.20;99.90
1359;DHT22;673;48.098;14.422;2023-08-06T10:45:27;18.40;99.90
1359;DHT22;673;48.098;14.422;2023-08-06T10:47:57;18.60;99.90
1359;DHT22;673;48.098;14.422;2023-08-06T10:50:24;18.80;99.90
1359;DHT22;673;48.098;14.422;2023-08-06T10:52:52;18.80;99.90
1359;DHT22;673;48.098;14.422;2023-08-06T10:55:24;18.90;99.90
1359;DHT22;673;48.098;14.422;2023-08-06T10:57:52;19.10;99.90
1359;DHT22;673;48.098;14.422;2023-08-06T11:00:21;19.50;99.90
1359;DHT22;673;48.098;14.422;2023-08-06T11:02:48;19.40;99.90
1359;DHT22;673;48.098;14.422;2023-08-06T11:05:15;19.80;99.90
1359;DHT22;673;48.098;14.422;2023-08-06T11:07:44;19.50;99.90
1359;DHT22;673;48.098;14.422;2023-08-06T11:10:13;19.30;99.90
1359;DHT22;673;48.098;14.422;2023-08-06T11:12:42;19.40;99.90
1359;DHT22;673;48.098;14.422;2023-08-06T11:15:10;19.60;99.90
1359;DHT22;673;48.098;14.422;2023-08-06T11:17:37;19.30;99.90
1359;DHT22;673;48.098;14.422;2023-08-06T11:20:06;18.60;99.90
1359;DHT22;673;48.098;14.422;2023-08-06T11:22:33;18.40;99.90
1359;DHT22;673;48.098;14.422;2023-08-06T11:25:02;18.40;99.90
1359;DHT22;673;48.098;14.422;2023-08-06T11:27:29;18.50;99.90
1359;DHT22;673;48.098;14.422;2023-08-06T11:29:57;18.40;99.90
1359;DHT22;673;48.098;14.422;2023-08-06T11:32:24;19.10;99.90
1359;DHT22;673;48.098;14.422;2023-08-06T11:34:53;19.30;99.90
1359;DHT22;673;48.098;14.422;2023-08-06T11:37:21;19.40;99.90
1359;DHT22;673;48.098;14.422;2023-08-06T11:39:50;19.80;99.90
1359;DHT22;673;48.098;14.422;2023-08-06T11:42:17;19.80;99.90
1359;DHT22;673;48.098;14.422;2023-08-06T11:44:44;19.70;99.90
1359;DHT22;673;48.098;14.422;2023-08-06T11:47:14;19.70;99.90
1359;DHT22;673;48.098;14.422;2023-08-06T11:49:43;19.70;99.90
1359;DHT22;673;48.098;14.422;2023-08-06T11:52:13;20.00;99.90
1359;DHT22;673;48.098;14.422;2023-08-06T11:54:41;20.10;99.90
1359;DHT22;673;48.098;14.422;2023-08-06T11:57:08;19.80;99.90
1359;DHT22;673;48.098;14.422;2023-08-06T11:59:37;19.50;99.90
1359;DHT22;673;48.098;14.422;2023-08-06T12:02:05;19.40;99.90
1359;DHT22;673;48.098;14.422;2023-08-06T12:05:00;19.80;99.90
1359;DHT22;673;48.098;14.422;2023-08-06T12:07:29;19.40;99.90
1359;DHT22;673;48.098;14.422;2023-08-06T12:09:56;19.40;99.90
1359;DHT22;673;48.098;14.422;2023-08-06T12:12:24;19.40;99.90
1359;DHT22;673;48.098;14.422;2023-08-06T12:14:51;19.30;99.90
1359;DHT22;673;48.098;14.422;2023-08-06T12:17:18;19.20;99.90
1359;DHT22;673;48.098;14.422;2023-08-06T12:19:45;18.90;99.90
1359;DHT22;673;48.098;14.422;2023-08-06T12:22:15;18.90;99.90
1359;DHT22;673;48.098;14.422;2023-08-06T12:24:42;18.90;99.90
1359;DHT22;673;48.098;14.422;2023-08-06T12:27:09;19.30;99.90
1359;DHT22;673;48.098;14.422;2023-08-06T12:29:36;19.40;99.90
1359;DHT22;673;48.098;14.422;2023-08-06T12:32:04;19.30;99.90
1359;DHT22;673;48.098;14.422;2023-08-06T12:34:31;19.10;99.90
1359;DHT22;673;48.098;14.422;2023-08-06T12:36:58;18.40;99.90
1359;DHT22;673;48.098;14.422;2023-08-06T12:39:26;17.50;99.90
1359;DHT22;673;48.098;14.422;2023-08-06T12:41:54;16.90;99.90
1359;DHT22;673;48.098;14.422;2023-08-06T12:44:23;16.70;99.90
1359;DHT22;673;48.098;14.422;2023-08-06T12:46:50;16.60;99.90
1359;DHT22;673;48.098;14.422;2023-08-06T12:49:17;16.60;99.90
1359;DHT22;673;48.098;14.422;2023-08-06T12:51:44;16.80;99.90
1359;DHT22;673;48.098;14.422;2023-08-06T12:54:11;17.00;99.90
1359;DHT22;673;48.098;14.422;2023-08-06T12:56:39;17.30;99.90
1359;DHT22;673;48.098;14.422;2023-08-06T12:59:06;17.70;99.90
1359;DHT22;673;48.098;14.422;2023-08-06T13:01:33;18.60;99.90
1359;DHT22;673;48.098;14.422;2023-08-06T13:04:00;18.70;99.90
1359;DHT22;673;48.098;14.422;2023-08-06T13:06:27;18.40;99.90
1359;DHT22;673;48.098;14.422;2023-08-06T13:08:54;18.30;99.90
1359;DHT22;673;48.098;14.422;2023-08-06T13:11:21;18.30;99.90
1359;DHT22;673;48.098;14.422;2023-08-06T13:13:49;18.30;99.90
1359;DHT22;673;48.098;14.422;2023-08-06T13:16:16;18.30;99.90
1359;DHT22;673;48.098;14.422;2023-08-06T13:18:43;17.90;99.90
1359;DHT22;673;48.098;14.422;2023-08-06T13:21:10;17.60;99.90
1359;DHT22;673;48.098;14.422;2023-08-06T13:23:37;17.30;99.90
1359;DHT22;673;48.098;14.422;2023-08-06T13:26:04;17.10;99.90
1359;DHT22;673;48.098;14.422;2023-08-06T13:28:30;17.20;99.90
1359;DHT22;673;48.098;14.422;2023-08-06T13:30:59;17.50;99.90
1359;DHT22;673;48.098;14.422;2023-08-06T13:33:26;17.90;99.90
1359;DHT22;673;48.098;14.422;2023-08-06T13:35:53;18.30;99.90
1359;DHT22;673;48.098;14.422;2023-08-06T13:38:20;18.90;99.90
1359;DHT22;673;48.098;14.422;2023-08-06T13:40:48;19.00;99.90
1359;DHT22;673;48.098;14.422;2023-08-06T13:43:15;19.20;99.90
1359;DHT22;673;48.098;14.422;2023-08-06T13:45:44;19.20;99.90
1359;DHT22;673;48.098;14.422;2023-08-06T13:48:13;18.90;99.90
1359;DHT22;673;48.098;14.422;2023-08-06T13:50:40;18.90;99.90
1359;DHT22;673;48.098;14.422;2023-08-06T13:53:06;18.80;99.90
1359;DHT22;673;48.098;14.422;2023-08-06T13:55:33;18.70;99.90
1359;DHT22;673;48.098;14.422;2023-08-06T13:58:00;19.10;99.90
1359;DHT22;673;48.098;14.422;2023-08-06T14:00:27;18.80;99.90
1359;DHT22;673;48.098;14.422;2023-08-06T14:02:54;18.70;99.90
1359;DHT22;673;48.098;14.422;2023-08-06T14:05:22;18.30;99.90
1359;DHT22;673;48.098;14.422;2023-08-06T14:07:49;18.60;99.90
1359;DHT22;673;48.098;14.422;2023-08-06T14:10:16;18.70;99.90
1359;DHT22;673;48.098;14.422;2023-08-06T14:12:43;18.40;99.90
1359;DHT22;673;48.098;14.422;2023-08-06T14:15:11;18.30;99.90
1359;DHT22;673;48.098;14.422;2023-08-06T14:17:38;18.00;99.90
1359;DHT22;673;48.098;14.422;2023-08-06T14:20:06;17.80;99.90
1359;DHT22;673;48.098;14.422;2023-08-06T14:22:38;17.60;99.90
1359;DHT22;673;48.098;14.422;2023-08-06T14:25:06;17.60;99.90
1359;DHT22;673;48.098;14.422;2023-08-06T14:27:33;17.60;99.90
1359;DHT22;673;48.098;14.422;2023-08-06T14:30:00;17.50;99.90
1359;DHT22;673;48.098;14.422;2023-08-06T14:32:28;17.40;99.90
1359;DHT22;673;48.098;14.422;2023-08-06T14:34:55;17.20;99.90
1359;DHT22;673;48.098;14.422;2023-08-06T14:37:23;17.10;99.90
1359;DHT22;673;48.098;14.422;2023-08-06T14:39:51;16.60;99.90
1359;DHT22;673;48.098;14.422;2023-08-06T14:42:18;15.70;99.90
1359;DHT22;673;48.098;14.422;2023-08-06T14:44:45;15.40;99.90
1359;DHT22;673;48.098;14.422;2023-08-06T14:47:12;15.20;99.90
1359;DHT22;673;48.098;14.422;2023-08-06T14:49:39;15.00;99.90
1359;DHT22;673;48.098;14.422;2023-08-06T14:52:06;15.00;99.90
1359;DHT22;673;48.098;14.422;2023-08-06T14:54:33;15.20;99.90
1359;DHT22;673;48.098;14.422;2023-08-06T14:57:02;15.40;99.90
1359;DHT22;673;48.098;14.422;2023-08-06T14:59:29;15.60;99.90
1359;DHT22;673;48.098;14.422;2023-08-06T15:01:56;16.00;99.90
1359;DHT22;673;48.098;14.422;2023-08-06T15:04:22;16.50;99.90
1359;DHT22;673;48.098;14.422;2023-08-06T15:06:50;16.90;99.90
1359;DHT22;673;48.098;14.422;2023-08-06T15:09:17;17.50;99.90
1359;DHT22;673;48.098;14.422;2023-08-06T15:11:43;17.70;99.90
1359;DHT22;673;48.098;14.422;2023-08-06T15:14:12;17.90;99.90
1359;DHT22;673;48.098;14.422;2023-08-06T15:16:40;18.40;99.90
1359;DHT22;673;48.098;14.422;2023-08-06T15:19:07;18.30;99.90
1359;DHT22;673;48.098;14.422;2023-08-06T15:21:34;18.10;99.90
1359;DHT22;673;48.098;14.422;2023-08-06T15:24:01;18.00;99.90
1359;DHT22;673;48.098;14.422;2023-08-06T15:26:28;17.90;99.90
1359;DHT22;673;48.098;14.422;2023-08-06T15:28:55;17.70;99.90
1359;DHT22;673;48.098;14.422;2023-08-06T15:31:24;17.60;99.90
1359;DHT22;673;48.098;14.422;2023-08-06T15:34:00;17.30;99.90
1359;DHT22;673;48.098;14.422;2023-08-06T15:36:29;17.10;99.90
1359;DHT22;673;48.098;14.422;2023-08-06T15:38:56;17.00;99.90
1359;DHT22;673;48.098;14.422;2023-08-06T15:41:23;16.80;99.90
1359;DHT22;673;48.098;14.422;2023-08-06T15:43:49;16.60;99.90
1359;DHT22;673;48.098;14.422;2023-08-06T15:46:17;16.00;99.90
1359;DHT22;673;48.098;14.422;2023-08-06T15:48:45;15.50;99.90
1359;DHT22;673;48.098;14.422;2023-08-06T15:51:12;15.30;99.90
1359;DHT22;673;48.098;14.422;2023-08-06T15:53:39;15.40;99.90
1359;DHT22;673;48.098;14.422;2023-08-06T15:56:06;15.30;99.90
1359;DHT22;673;48.098;14.422;2023-08-06T15:58:33;15.30;99.90
1359;DHT22;673;48.098;14.422;2023-08-06T16:01:00;15.60;99.90
1359;DHT22;673;48.098;14.422;2023-08-06T16:03:28;15.70;99.90
1359;DHT22;673;48.098;14.422;2023-08-06T16:05:56;15.70;99.90